LCY weather

London City Airport
London, England, United Kingdom

Public forecast

Using degrees Celsius for public forecast. Weather courtesy of forecast.io.

METAR (pilot weather report)

Retrieved 2018/12/09 23:20 UTC (35 minutes ago):

EGLC 092320Z AUTO 26008KT 240V300 9999 NCD 08/04 Q1022

TAF (pilot weather forecast)

Forecast is more than 12 hours old.

Retrieved 2018/10/15 21:30 UTC (2 months ago):

TAF EGLC 152119Z 1521/1621 CNL